Zografos, Greece
Current Conditions -  °F | °C
As of 5:20 AM on Saturday 29 Nov 2014 (Local Time) from LGTS Reporting Station
Haze Haze  
Wind Chill: 10°   Ceiling: 3000
Heat Index: 10°   Visibility: 3mi
Dew Point: 10°   Wind: 0mph
Humidity: 100%   Direction: NA
Pressure: 30.24"   Gusts: NA
Location:  40.28°N, 23.25°E
Report Text: LGTS 290220Z 00000KT 5000 BR SCT006 OVC030 10/10 Q1024 NOSIG
Loading
Personal Weather Stations






























Interactive Weather Map New forecast layout! Learn more

10-Day Weather Forecast

Advertisements
Track Severe Weather on mobile